Leroy, Texas
Current Conditions -  °F | °C
As of 8:51 PM on Tuesday 21 Oct 2014 (Local Time) from KACT Reporting Station
Clear Clear  
Wind Chill: 68°   Ceiling: Unl
Heat Index: 68°   Visibility: 10mi
Dew Point: 57°   Wind: 6mph
Humidity: 68%   Direction: 110°ESE
Pressure: 30.05"   Gusts: NA
Location:  31.73°N, 97.02°W
Report Text: KACT 220151Z 11005KT 10SM CLR 20/14 A3005 RMK AO2 SLP169 T02000139
Loading
Personal Weather Stations






























Interactive Weather Map
Tropical Storm Tracking
New forecast layout! Learn more

10-Day Weather Forecast

Advertisements
Track Severe Weather on mobile